createdAt,value
2023-04-08T00:01:18.475Z,34.70
2023-04-08T00:04:20.551Z,35.08
2023-04-08T00:07:23.259Z,36.72
2023-04-08T00:10:26.533Z,34.60
2023-04-08T00:13:29.245Z,34.67
2023-04-08T00:16:31.317Z,34.00
2023-04-08T00:19:36.128Z,32.05
2023-04-08T00:22:38.252Z,34.67
2023-04-08T00:25:40.957Z,34.83
2023-04-08T00:28:43.241Z,34.97
2023-04-08T00:31:45.840Z,35.45
2023-04-08T00:34:49.500Z,28.48
2023-04-08T00:37:52.357Z,35.42
2023-04-08T00:40:54.389Z,31.83
2023-04-08T00:43:57.133Z,37.83
2023-04-08T00:46:59.486Z,35.03
2023-04-08T00:50:02.043Z,31.90
2023-04-08T00:53:04.041Z,35.73
2023-04-08T00:56:06.130Z,34.40
2023-04-08T00:59:08.568Z,36.78
2023-04-08T01:02:30.065Z,32.85
2023-04-08T01:05:38.975Z,34.83
2023-04-08T01:08:41.195Z,37.40
2023-04-08T01:11:43.739Z,37.38
2023-04-08T01:14:46.311Z,35.97
2023-04-08T01:17:48.898Z,41.90
2023-04-08T01:20:51.388Z,37.30
2023-04-08T01:24:02.250Z,38.93
2023-04-08T01:27:04.364Z,37.47
2023-04-08T01:30:06.726Z,34.15
2023-04-08T01:33:10.545Z,37.20
2023-04-08T01:36:12.526Z,39.35
2023-04-08T01:39:17.488Z,33.20
2023-04-08T01:42:22.837Z,35.55
2023-04-08T01:45:25.572Z,36.00
2023-04-08T01:48:27.983Z,36.33
2023-04-08T01:51:31.907Z,34.75
2023-04-08T01:54:35.206Z,37.00
2023-04-08T01:57:38.372Z,37.78
2023-04-08T02:00:41.140Z,38.10
2023-04-08T02:03:44.508Z,38.20
2023-04-08T02:06:47.113Z,38.13
2023-04-08T02:09:49.161Z,36.47
2023-04-08T02:12:51.291Z,34.80
2023-04-08T02:16:09.039Z,37.53
2023-04-08T02:19:18.799Z,34.03
2023-04-08T02:22:26.250Z,39.78
2023-04-08T02:25:28.248Z,36.10
2023-04-08T02:28:30.769Z,38.50
2023-04-08T02:31:33.208Z,38.38
2023-04-08T02:34:35.406Z,34.90
2023-04-08T02:37:37.773Z,35.05
2023-04-08T02:40:40.305Z,37.65
2023-04-08T02:43:42.873Z,35.17
2023-04-08T02:46:44.936Z,36.00
2023-04-08T02:49:47.356Z,38.78
2023-04-08T02:52:49.304Z,36.17
2023-04-08T02:55:51.723Z,37.93
2023-04-08T02:58:55.154Z,36.42
2023-04-08T03:01:57.597Z,38.60
2023-04-08T03:04:59.864Z,32.03
2023-04-08T03:08:01.996Z,33.40
2023-04-08T03:11:04.409Z,33.40
2023-04-08T03:14:06.356Z,31.23
2023-04-08T03:17:08.386Z,29.03
2023-04-08T03:20:11.121Z,29.75
2023-04-08T03:23:13.529Z,31.55
2023-04-08T03:26:15.856Z,29.43
2023-04-08T03:29:18.309Z,24.98
2023-04-08T03:32:20.702Z,26.45
2023-04-08T03:35:23.223Z,24.10
2023-04-08T03:38:25.354Z,26.02
2023-04-08T03:41:27.527Z,25.45
2023-04-08T03:44:29.871Z,23.65
2023-04-08T03:47:31.958Z,26.77
2023-04-08T03:50:34.168Z,26.95
2023-04-08T03:53:36.159Z,26.88
2023-04-08T03:56:38.092Z,26.77
2023-04-08T03:59:41.255Z,25.80
2023-04-08T04:02:43.673Z,27.75
2023-04-08T04:05:46.078Z,28.83
2023-04-08T04:08:48.478Z,24.48
2023-04-08T04:11:50.762Z,23.88
2023-04-08T04:14:53.155Z,26.88
2023-04-08T04:17:55.780Z,25.80
2023-04-08T04:20:58.146Z,28.00
2023-04-08T04:24:00.623Z,27.20
2023-04-08T04:27:03.024Z,26.90
2023-04-08T04:30:05.884Z,30.00
2023-04-08T04:33:08.256Z,22.20
2023-04-08T04:36:11.095Z,26.30
2023-04-08T04:39:13.214Z,24.27
2023-04-08T04:42:15.717Z,30.00
2023-04-08T04:45:18.143Z,30.73
2023-04-08T04:48:20.445Z,24.87
2023-04-08T04:51:22.434Z,29.63
2023-04-08T04:54:24.442Z,27.02
2023-04-08T04:57:28.480Z,26.60
2023-04-08T05:00:30.611Z,26.02
2023-04-08T05:03:32.735Z,29.55
2023-04-08T05:06:35.076Z,25.95
2023-04-08T05:09:37.406Z,26.73
2023-04-08T05:12:39.593Z,24.65
2023-04-08T05:15:41.578Z,29.58
2023-04-08T05:18:43.828Z,26.73
2023-04-08T05:21:46.192Z,25.13
2023-04-08T05:24:48.999Z,24.75
2023-04-08T05:27:51.351Z,25.30
2023-04-08T05:30:53.548Z,26.60
2023-04-08T05:33:55.494Z,26.63
2023-04-08T05:36:57.996Z,28.67
2023-04-08T05:40:00.146Z,26.10
2023-04-08T05:43:02.229Z,31.05
2023-04-08T05:46:08.103Z,27.38
2023-04-08T05:49:10.196Z,28.80
2023-04-08T05:52:12.183Z,29.27
2023-04-08T05:55:14.616Z,30.70
2023-04-08T05:58:17.397Z,28.30
2023-04-08T06:01:19.511Z,27.90
2023-04-08T06:04:21.617Z,32.60
2023-04-08T06:07:23.582Z,26.63
2023-04-08T06:10:25.972Z,29.70
2023-04-08T06:13:28.389Z,32.10
2023-04-08T06:16:30.527Z,32.22
2023-04-08T06:19:32.856Z,34.77
2023-04-08T06:22:36.220Z,30.02
2023-04-08T06:25:38.855Z,30.00
2023-04-08T06:28:40.885Z,33.63
2023-04-08T06:31:42.871Z,30.73
2023-04-08T06:34:45.484Z,26.40
2023-04-08T06:37:47.486Z,28.48
2023-04-08T06:40:49.462Z,29.25
2023-04-08T06:43:51.996Z,30.13
2023-04-08T06:46:54.356Z,32.85
2023-04-08T06:49:57.301Z,70.10
2023-04-08T06:53:00.411Z,37.45
2023-04-08T06:56:02.503Z,39.47
2023-04-08T06:59:07.449Z,27.60
2023-04-08T07:02:09.505Z,31.92
2023-04-08T07:05:11.777Z,28.10
2023-04-08T07:08:13.750Z,26.02
2023-04-08T07:11:15.978Z,29.45
2023-04-08T07:14:18.214Z,30.02
2023-04-08T07:17:20.582Z,28.73
2023-04-08T07:20:23.454Z,34.80
2023-04-08T07:23:25.594Z,30.45
2023-04-08T07:26:28.711Z,27.48
2023-04-08T07:29:31.727Z,24.17
2023-04-08T07:32:33.994Z,26.45
2023-04-08T07:35:36.259Z,27.88
2023-04-08T07:38:39.089Z,25.67
2023-04-08T07:41:41.456Z,24.42
2023-04-08T07:44:43.523Z,26.10
2023-04-08T07:47:46.235Z,30.42
2023-04-08T07:51:08.600Z,31.80
2023-04-08T07:54:17.305Z,30.48
2023-04-08T07:57:19.395Z,30.35
2023-04-08T08:00:22.047Z,34.17
2023-04-08T08:03:24.204Z,34.08
2023-04-08T08:06:27.682Z,35.40
2023-04-08T08:09:31.985Z,35.88
2023-04-08T08:12:34.526Z,34.83
2023-04-08T08:15:36.674Z,33.65
2023-04-08T08:18:40.338Z,32.00
2023-04-08T08:21:42.493Z,33.57
2023-04-08T08:24:44.536Z,30.35
2023-04-08T08:27:46.473Z,27.48
2023-04-08T08:30:49.321Z,31.00
2023-04-08T08:33:51.623Z,27.77
2023-04-08T08:36:53.923Z,27.25
2023-04-08T08:39:56.292Z,25.40
2023-04-08T08:42:59.245Z,25.02
2023-04-08T08:46:01.832Z,24.17
2023-04-08T08:49:04.108Z,24.45
2023-04-08T08:52:06.981Z,31.67
2023-04-08T08:55:27.690Z,26.08
2023-04-08T08:58:31.122Z,25.38
2023-04-08T09:01:34.179Z,24.10
2023-04-08T09:04:37.100Z,22.92
2023-04-08T09:07:42.455Z,24.50
2023-04-08T09:10:44.441Z,27.25
2023-04-08T09:13:46.693Z,27.55
2023-04-08T09:16:48.862Z,24.83
2023-04-08T09:20:09.872Z,21.52
2023-04-08T09:23:12.435Z,27.90
2023-04-08T09:26:18.227Z,24.67
2023-04-08T09:32:28.121Z,29.63
2023-04-08T09:35:30.473Z,27.05
2023-04-08T09:38:32.432Z,31.52
2023-04-08T09:41:34.943Z,23.15
2023-04-08T09:44:37.261Z,23.92
2023-04-08T09:47:43.024Z,26.98
2023-04-08T09:50:47.515Z,43.13
2023-04-08T09:53:53.468Z,23.93
2023-04-08T09:57:01.137Z,25.23
2023-04-08T10:00:10.085Z,28.60
2023-04-08T10:03:28.671Z,25.27
2023-04-08T10:06:31.451Z,26.08
2023-04-08T10:09:33.980Z,26.25
2023-04-08T10:12:36.419Z,27.30
2023-04-08T10:15:40.859Z,24.17
2023-04-08T10:18:43.155Z,27.38
2023-04-08T10:21:51.038Z,27.77
2023-04-08T10:25:11.998Z,29.50
2023-04-08T10:28:20.286Z,24.27
2023-04-08T10:31:22.388Z,28.25
2023-04-08T10:34:26.490Z,25.63
2023-04-08T10:37:28.477Z,27.48
2023-04-08T10:40:41.763Z,25.98
2023-04-08T10:43:45.356Z,27.08
2023-04-08T10:46:48.196Z,26.48
2023-04-08T10:49:51.364Z,25.92
2023-04-08T10:52:54.490Z,24.85
2023-04-08T10:56:06.445Z,25.53
2023-04-08T10:59:08.451Z,25.88
2023-04-08T11:02:14.273Z,27.35
2023-04-08T11:05:17.406Z,24.70
2023-04-08T11:08:21.033Z,22.90
2023-04-08T11:11:23.997Z,26.17
2023-04-08T11:14:26.780Z,27.80
2023-04-08T11:17:29.159Z,26.13
2023-04-08T11:20:32.221Z,24.25
2023-04-08T11:23:34.441Z,27.45
2023-04-08T11:26:37.009Z,25.50
2023-04-08T11:29:39.781Z,24.55
2023-04-08T11:32:42.194Z,23.52
2023-04-08T11:35:44.347Z,19.67
2023-04-08T11:38:48.037Z,20.67
2023-04-08T11:41:50.190Z,21.92
2023-04-08T11:44:52.177Z,20.70
2023-04-08T11:47:54.199Z,20.40
2023-04-08T11:51:03.758Z,22.88
2023-04-08T11:54:07.416Z,20.83
2023-04-08T11:57:12.481Z,27.47
2023-04-08T12:00:15.284Z,21.70
2023-04-08T12:03:17.835Z,19.83
2023-04-08T12:06:19.930Z,20.47
2023-04-08T12:09:22.495Z,18.77
2023-04-08T12:12:24.650Z,23.25
2023-04-08T12:15:26.673Z,18.10
2023-04-08T12:18:28.819Z,21.17
2023-04-08T12:21:38.253Z,21.20
2023-04-08T12:24:42.794Z,17.23
2023-04-08T12:27:44.861Z,18.40
2023-04-08T12:30:46.969Z,18.50
2023-04-08T12:33:49.416Z,20.85
2023-04-08T12:36:52.057Z,19.40
2023-04-08T12:39:54.094Z,21.85
2023-04-08T12:42:56.791Z,16.00
2023-04-08T12:45:59.185Z,15.43
2023-04-08T12:49:04.610Z,17.60
2023-04-08T12:52:07.842Z,19.52
2023-04-08T12:55:10.308Z,18.65
2023-04-08T12:58:12.773Z,17.70
2023-04-08T13:01:14.808Z,20.00
2023-04-08T13:04:17.139Z,15.63
2023-04-08T13:07:19.487Z,16.20
2023-04-08T13:10:21.516Z,19.40
2023-04-08T13:13:24.279Z,22.83
2023-04-08T13:16:27.273Z,21.63
2023-04-08T13:19:29.908Z,21.75
2023-04-08T13:22:33.676Z,20.17
2023-04-08T13:25:36.159Z,15.38
2023-04-08T13:28:50.102Z,13.63
2023-04-08T13:31:58.700Z,15.43
2023-04-08T13:35:01.147Z,19.88
2023-04-08T13:38:03.213Z,30.70
2023-04-08T13:41:05.664Z,21.98
2023-04-08T13:44:08.152Z,23.98
2023-04-08T13:47:10.526Z,37.15
2023-04-08T13:50:13.090Z,19.35
2023-04-08T13:53:16.840Z,22.25
2023-04-08T13:56:21.165Z,16.65
2023-04-08T13:59:23.617Z,16.83
2023-04-08T14:02:26.091Z,13.63
2023-04-08T14:05:28.115Z,15.02
2023-04-08T14:08:30.314Z,13.67
2023-04-08T14:11:32.297Z,14.20
2023-04-08T14:14:34.633Z,24.67
2023-04-08T14:17:37.211Z,15.25
2023-04-08T14:20:39.695Z,13.07
2023-04-08T14:23:42.568Z,11.25
2023-04-08T14:26:44.725Z,37.67
2023-04-08T14:29:46.774Z,13.00
2023-04-08T14:32:49.182Z,20.58
2023-04-08T14:35:52.669Z,20.50
2023-04-08T14:38:55.408Z,31.57
2023-04-08T14:41:58.416Z,16.90
2023-04-08T14:45:01.102Z,12.68
2023-04-08T14:48:03.153Z,11.27
2023-04-08T14:51:06.178Z,19.55
2023-04-08T14:54:08.546Z,14.75
2023-04-08T14:57:10.633Z,17.15
2023-04-08T15:00:13.020Z,35.97
2023-04-08T15:03:34.293Z,15.23
2023-04-08T15:06:36.768Z,15.05
2023-04-08T15:09:39.125Z,17.00
2023-04-08T15:12:41.187Z,15.25
2023-04-08T15:15:43.798Z,15.00
2023-04-08T15:18:46.337Z,14.43
2023-04-08T15:21:48.298Z,12.77
2023-04-08T15:24:50.282Z,12.50
2023-04-08T15:27:52.503Z,43.17
2023-04-08T15:30:55.049Z,15.87
2023-04-08T15:33:58.453Z,12.75
2023-04-08T15:37:02.333Z,11.82
2023-04-08T15:40:04.439Z,12.80
2023-04-08T15:43:06.829Z,11.35
2023-04-08T15:46:09.312Z,32.90
2023-04-08T15:49:11.969Z,22.92
2023-04-08T15:52:14.092Z,63.90
2023-04-08T15:55:16.210Z,40.50
2023-04-08T15:58:18.503Z,92.75
2023-04-08T16:01:20.981Z,48.27
2023-04-08T16:04:23.093Z,56.38
2023-04-08T16:07:25.443Z,24.00
2023-04-08T16:10:27.756Z,44.22
2023-04-08T16:13:30.310Z,30.38
2023-04-08T16:16:33.035Z,38.17
2023-04-08T16:19:35.198Z,26.55
2023-04-08T16:22:37.237Z,24.93
2023-04-08T16:25:39.550Z,21.23
2023-04-08T16:28:42.305Z,17.00
2023-04-08T16:31:44.434Z,16.43
2023-04-08T16:34:46.760Z,15.50
2023-04-08T16:37:49.197Z,13.57
2023-04-08T16:40:51.904Z,14.90
2023-04-08T16:43:53.872Z,19.85
2023-04-08T16:46:56.470Z,17.13
2023-04-08T16:49:58.923Z,13.65
2023-04-08T16:53:01.605Z,13.37
2023-04-08T16:56:04.170Z,24.58
2023-04-08T16:59:07.066Z,44.85
2023-04-08T17:02:09.481Z,75.47
2023-04-08T17:05:11.707Z,80.50
2023-04-08T17:08:14.156Z,36.85
2023-04-08T17:11:16.493Z,46.10
2023-04-08T17:14:18.853Z,30.75
2023-04-08T17:17:21.242Z,25.55
2023-04-08T17:20:24.904Z,18.25
2023-04-08T17:23:27.258Z,17.47
2023-04-08T17:26:29.224Z,14.63
2023-04-08T17:29:31.757Z,17.00
2023-04-08T17:32:34.145Z,16.90
2023-04-08T17:35:36.365Z,14.50
2023-04-08T17:38:39.970Z,14.15
2023-04-08T17:41:44.683Z,15.98
2023-04-08T17:44:48.354Z,10.73
2023-04-08T17:47:50.585Z,12.15
2023-04-08T17:51:03.041Z,12.88
2023-04-08T17:54:05.916Z,17.17
2023-04-08T17:57:08.068Z,23.25
2023-04-08T18:00:10.689Z,18.63
2023-04-08T18:03:15.137Z,19.77
2023-04-08T18:06:18.088Z,18.70
2023-04-08T18:09:20.044Z,14.75
2023-04-08T18:12:22.213Z,17.10
2023-04-08T18:15:24.690Z,18.63
2023-04-08T18:18:27.142Z,20.05
2023-04-08T18:21:29.339Z,22.80
2023-04-08T18:24:31.499Z,22.60
2023-04-08T18:27:34.076Z,21.58
2023-04-08T18:30:36.544Z,20.80
2023-04-08T18:33:41.656Z,18.47
2023-04-08T18:36:43.788Z,20.50
2023-04-08T18:39:46.423Z,23.63
2023-04-08T18:42:48.977Z,24.85
2023-04-08T18:45:51.579Z,24.10
2023-04-08T18:48:53.709Z,20.40
2023-04-08T18:52:02.560Z,24.63
2023-04-08T18:55:05.412Z,25.90
2023-04-08T18:58:07.916Z,24.67
2023-04-08T19:01:11.009Z,26.90
2023-04-08T19:04:13.871Z,26.23
2023-04-08T19:07:17.272Z,57.97
2023-04-08T19:10:19.565Z,27.33
2023-04-08T19:13:23.445Z,20.15
2023-04-08T19:16:25.700Z,20.60
2023-04-08T19:19:28.083Z,20.10
2023-04-08T19:22:31.133Z,15.95
2023-04-08T19:25:33.187Z,19.93
2023-04-08T19:28:36.317Z,18.27
2023-04-08T19:31:39.133Z,18.77
2023-04-08T19:34:41.203Z,21.67
2023-04-08T19:37:43.224Z,19.80
2023-04-08T19:40:45.698Z,23.45
2023-04-08T19:43:48.005Z,20.05
2023-04-08T19:46:50.614Z,23.80
2023-04-08T19:49:53.157Z,22.30
2023-04-08T19:52:55.347Z,26.02
2023-04-08T19:56:03.709Z,26.33
2023-04-08T19:59:05.982Z,27.92
2023-04-08T20:02:08.731Z,29.40
2023-04-08T20:05:16.123Z,31.17
2023-04-08T20:08:18.178Z,30.92
2023-04-08T20:11:20.473Z,35.33
2023-04-08T20:14:22.501Z,30.92
2023-04-08T20:17:24.673Z,31.17
2023-04-08T20:20:28.910Z,32.63
2023-04-08T20:23:32.251Z,31.33
2023-04-08T20:26:34.573Z,30.80
2023-04-08T20:29:36.578Z,32.83
2023-04-08T20:32:39.016Z,36.03
2023-04-08T20:35:41.483Z,33.47
2023-04-08T20:38:43.975Z,37.17
2023-04-08T20:41:46.586Z,32.25
2023-04-08T20:44:49.090Z,35.20
2023-04-08T20:47:51.363Z,34.08
2023-04-08T20:50:53.799Z,39.88
2023-04-08T20:53:56.285Z,35.47
2023-04-08T20:56:58.664Z,36.17
2023-04-08T21:00:01.294Z,34.40
2023-04-08T21:03:03.493Z,35.05
2023-04-08T21:06:05.869Z,31.83
2023-04-08T21:09:08.220Z,35.53
2023-04-08T21:12:10.405Z,35.83
2023-04-08T21:15:12.410Z,34.63
2023-04-08T21:18:14.526Z,38.22
2023-04-08T21:21:16.986Z,44.28
2023-04-08T21:24:19.005Z,42.60
2023-04-08T21:27:21.126Z,46.67
2023-04-08T21:30:23.132Z,44.00
2023-04-08T21:33:25.108Z,39.63
2023-04-08T21:36:27.983Z,43.83
2023-04-08T21:39:30.005Z,44.55
2023-04-08T21:42:32.995Z,44.03
2023-04-08T21:45:35.080Z,41.15
2023-04-08T21:48:37.627Z,41.95
2023-04-08T21:51:40.993Z,37.67
2023-04-08T21:54:42.985Z,39.85
2023-04-08T21:57:44.969Z,35.40
2023-04-08T22:00:47.248Z,35.50
2023-04-08T22:03:49.702Z,32.40
2023-04-08T22:06:51.800Z,32.63
2023-04-08T22:09:54.673Z,34.00
2023-04-08T22:12:57.011Z,34.65
2023-04-08T22:15:59.152Z,33.40
2023-04-08T22:19:01.411Z,29.27
2023-04-08T22:22:03.502Z,32.55
2023-04-08T22:25:05.809Z,31.38
2023-04-08T22:28:07.769Z,30.90
2023-04-08T22:31:11.163Z,31.10
2023-04-08T22:34:13.428Z,32.70
2023-04-08T22:37:15.952Z,29.87
2023-04-08T22:40:18.123Z,31.73
2023-04-08T22:43:20.804Z,28.92
2023-04-08T22:46:22.917Z,31.58
2023-04-08T22:49:25.044Z,31.83
2023-04-08T22:52:26.981Z,32.20
2023-04-08T22:55:29.625Z,30.20
2023-04-08T22:58:32.105Z,34.23
2023-04-08T23:01:34.291Z,32.03
2023-04-08T23:04:36.694Z,35.13
2023-04-08T23:07:39.122Z,35.33
2023-04-08T23:10:41.758Z,33.40
2023-04-08T23:13:44.027Z,37.67
2023-04-08T23:16:46.110Z,36.13
2023-04-08T23:19:48.206Z,38.97
2023-04-08T23:22:51.176Z,42.50
2023-04-08T23:25:55.522Z,39.15
2023-04-08T23:28:58.006Z,34.57
2023-04-08T23:31:59.969Z,37.53
2023-04-08T23:35:02.299Z,38.90
2023-04-08T23:38:04.281Z,39.33
2023-04-08T23:41:06.561Z,39.03
2023-04-08T23:44:08.861Z,43.75
2023-04-08T23:47:11.201Z,46.08
2023-04-08T23:50:13.719Z,38.58
2023-04-08T23:53:15.751Z,41.70
2023-04-08T23:56:17.726Z,43.17
2023-04-08T23:59:20.118Z,44.07
